Weather reports worldwide

Advertisment
Braemar, United Kingdom (99089): temperature & dewpoint: 12.09.2019 05:00:00 - 18.09.2019 05:00:00 (BST)Braemar, United Kingdom (99089): temperature -20cm & temperature -100cm: 12.09.2019 05:00:00 - 18.09.2019 05:00:00 (BST)Braemar, United Kingdom (99089): precipitation: 12.09.2019 05:00:00 - 18.09.2019 05:00:00 (BST)
Date & Time tt [°C] td [°C] tt -20cm [°C] tt -100cm [°C] rr [mm]
18.09.2019 05:00:00 - - - - -
18.09.2019 04:00:00 6,0 5,1 - - 0,0
18.09.2019 03:00:00 5,7 4,8 - - 0,0
18.09.2019 02:00:00 5,5 4,6 - - 0,0
18.09.2019 01:00:00 5,5 4,3 - - 0,0
18.09.2019 00:00:00 5,6 4,2 - - 0,0
17.09.2019 23:00:00 5,8 4,0 - - 0,0
17.09.2019 22:00:00 6,2 3,8 - - 0,0
17.09.2019 21:00:00 6,5 3,7 - - 0,0
17.09.2019 20:00:00 6,8 3,5 - - 0,0
17.09.2019 19:00:00 8,9 1,9 - - 0,0
17.09.2019 18:00:00 10,1 2,6 - - 0,0
17.09.2019 17:00:00 11,5 3,2 - - 0,0
17.09.2019 16:00:00 11,0 2,8 - - 0,0
17.09.2019 15:00:00 10,9 2,0 - - 0,0
17.09.2019 14:00:00 11,2 1,9 - - 0,0
17.09.2019 13:00:00 9,8 2,4 - - 0,0
17.09.2019 12:00:00 10,7 2,1 - - 0,0
17.09.2019 11:00:00 10,2 3,1 - - 0,0
17.09.2019 10:00:00 8,5 3,0 11,0 11,9 0,0
17.09.2019 09:00:00 7,9 2,7 - - 0,0
17.09.2019 08:00:00 7,0 1,9 - - 0,0
17.09.2019 07:00:00 6,9 1,6 - - 0,0
17.09.2019 06:00:00 6,3 0,1 - - 0,0
17.09.2019 05:00:00 6,1 1,0 - - 0,0
17.09.2019 04:00:00 7,6 2,1 - - 0,0
17.09.2019 03:00:00 7,6 2,3 - - 0,0
17.09.2019 02:00:00 7,3 2,0 - - 0,0
17.09.2019 01:00:00 7,0 1,2 - - 0,0
17.09.2019 00:00:00 7,7 4,3 - - 0,2
16.09.2019 23:00:00 8,2 4,8 - - 0,0
16.09.2019 22:00:00 7,8 5,3 - - 0,0
16.09.2019 21:00:00 8,0 5,2 - - 0,0
16.09.2019 20:00:00 8,5 7,2 - - 0,0
16.09.2019 19:00:00 9,8 6,5 - - 0,0
16.09.2019 18:00:00 10,3 6,7 - - 0,0
16.09.2019 17:00:00 11,3 6,1 - - 0,0
16.09.2019 16:00:00 11,8 7,3 - - 0,0
16.09.2019 15:00:00 11,9 5,5 - - 0,0
16.09.2019 14:00:00 11,7 7,9 - - 0,0
16.09.2019 13:00:00 12,4 5,6 - - 0,0
16.09.2019 12:00:00 10,7 6,3 - - 0,0
16.09.2019 11:00:00 10,8 5,0 - - 0,0
16.09.2019 10:00:00 9,7 4,4 11,2 12,0 0,0
16.09.2019 09:00:00 8,5 3,9 - - 0,0
16.09.2019 08:00:00 7,8 4,0 - - 0,0
16.09.2019 07:00:00 6,3 4,6 - - 0,0
16.09.2019 06:00:00 7,5 5,0 - - 0,0
16.09.2019 05:00:00 5,7 3,3 - - 0,0
16.09.2019 04:00:00 6,8 4,4 - - 0,0
16.09.2019 03:00:00 4,7 4,1 - - 0,0
16.09.2019 02:00:00 0,7 0,4 - - 0,0
16.09.2019 01:00:00 1,4 1,1 - - 0,0
16.09.2019 00:00:00 1,3 0,3 - - 0,0
15.09.2019 23:00:00 2,5 0,9 - - 0,0
15.09.2019 22:00:00 6,3 3,0 - - 0,0
15.09.2019 21:00:00 6,1 2,5 - - 0,0
15.09.2019 20:00:00 8,9 3,1 - - 0,0
15.09.2019 19:00:00 10,6 2,5 - - 0,0
15.09.2019 18:00:00 11,8 4,1 - - 0,0
15.09.2019 17:00:00 11,5 3,6 - - 0,0
15.09.2019 16:00:00 13,2 3,3 - - 0,0
15.09.2019 15:00:00 13,5 5,1 - - 0,0
15.09.2019 14:00:00 12,2 3,8 - - 0,0
15.09.2019 13:00:00 10,9 3,7 - - 0,0
15.09.2019 12:00:00 10,3 4,1 - - 0,0
15.09.2019 11:00:00 10,4 4,2 - - 0,0
15.09.2019 10:00:00 9,7 3,2 11,7 12,0 0,0
15.09.2019 09:00:00 8,7 3,6 - - 0,0
15.09.2019 08:00:00 8,3 3,5 - - 0,0
15.09.2019 07:00:00 7,9 3,2 - - 0,0
15.09.2019 06:00:00 8,3 2,4 - - 0,0
15.09.2019 05:00:00 8,7 3,1 - - 0,0
15.09.2019 04:00:00 9,2 4,3 - - 0,0
15.09.2019 03:00:00 9,5 4,2 - - 0,0
15.09.2019 02:00:00 10,3 6,0 - - 0,0
15.09.2019 01:00:00 10,1 6,0 - - 0,0
15.09.2019 00:00:00 10,1 5,6 - - 0,0
14.09.2019 23:00:00 10,9 7,3 - - 0,0
14.09.2019 22:00:00 12,1 9,2 - - 0,2
14.09.2019 21:00:00 13,6 12,1 - - 0,2
14.09.2019 20:00:00 14,8 11,6 - - 0,0
14.09.2019 19:00:00 14,5 11,4 - - 0,0
14.09.2019 18:00:00 14,1 11,5 - - 0,0
14.09.2019 17:00:00 13,4 11,2 - - 0,0
14.09.2019 16:00:00 13,1 10,9 - - 0,0
14.09.2019 15:00:00 13,1 10,5 - - 0,0
14.09.2019 14:00:00 13,1 9,6 - - 0,0
14.09.2019 13:00:00 13,5 9,5 - - 0,0
14.09.2019 12:00:00 11,7 8,5 - - 0,0
14.09.2019 11:00:00 12,1 8,0 - - 0,0
14.09.2019 10:00:00 11,7 7,7 12,0 12,2 0,0
14.09.2019 09:00:00 11,7 7,0 - - 0,0
14.09.2019 08:00:00 11,4 6,5 - - 0,0
14.09.2019 07:00:00 10,9 6,5 - - 0,0
14.09.2019 06:00:00 10,8 6,4 - - 0,0
14.09.2019 05:00:00 9,9 5,8 - - 0,0
14.09.2019 04:00:00 10,0 5,4 - - 0,0
14.09.2019 03:00:00 10,1 6,1 - - 0,0
14.09.2019 02:00:00 10,4 5,8 - - 0,0
14.09.2019 01:00:00 10,1 6,3 - - 0,0
14.09.2019 00:00:00 10,2 6,4 - - 0,0
13.09.2019 23:00:00 9,7 6,5 - - 0,0
13.09.2019 22:00:00 9,0 6,2 - - 0,0
13.09.2019 21:00:00 9,2 5,9 - - 0,0
13.09.2019 20:00:00 10,0 5,6 - - 0,0
13.09.2019 19:00:00 11,6 5,0 - - 0,0
13.09.2019 18:00:00 12,5 5,0 - - 0,0
13.09.2019 17:00:00 13,3 5,0 - - 0,0
13.09.2019 16:00:00 12,9 3,9 - - 0,0
13.09.2019 15:00:00 14,2 5,2 - - 0,0
13.09.2019 14:00:00 14,3 3,7 - - 0,0
13.09.2019 13:00:00 14,1 4,8 - - 0,0
13.09.2019 12:00:00 13,1 5,1 - - 0,0
13.09.2019 11:00:00 11,9 5,7 - - 0,0
13.09.2019 10:00:00 10,2 5,1 12,2 12,2 0,0
13.09.2019 09:00:00 9,0 5,4 - - 0,0
13.09.2019 08:00:00 8,5 4,4 - - 0,0
13.09.2019 07:00:00 8,3 4,0 - - 0,0
13.09.2019 06:00:00 8,3 4,6 - - 0,0
13.09.2019 05:00:00 8,3 4,8 - - 0,0
13.09.2019 04:00:00 8,8 5,2 - - 0,0
13.09.2019 03:00:00 9,0 5,1 - - 0,0
13.09.2019 02:00:00 8,7 5,1 - - 0,0
13.09.2019 01:00:00 8,9 5,9 - - 0,0
13.09.2019 00:00:00 7,0 4,8 - - 0,0
12.09.2019 23:00:00 6,9 4,3 - - 0,0
12.09.2019 22:00:00 7,1 4,7 - - 0,0
12.09.2019 21:00:00 7,8 4,6 - - 0,0
12.09.2019 20:00:00 10,2 5,8 - - 0,0
12.09.2019 19:00:00 11,1 5,2 - - 0,0
12.09.2019 18:00:00 14,0 7,0 - - 0,0
12.09.2019 17:00:00 14,6 6,6 - - 0,0
12.09.2019 16:00:00 15,1 7,4 - - 0,0
12.09.2019 15:00:00 14,2 8,4 - - 0,0
12.09.2019 14:00:00 13,1 9,2 - - 0,4
12.09.2019 13:00:00 11,3 10,2 - - 0,8
12.09.2019 12:00:00 12,1 9,2 - - 0,0
12.09.2019 11:00:00 12,4 8,3 - - 0,0
12.09.2019 10:00:00 11,9 8,2 12,7 12,2 0,0
12.09.2019 09:00:00 11,7 8,1 - - 0,0
12.09.2019 08:00:00 11,0 7,5 - - 0,0
12.09.2019 07:00:00 10,4 7,6 - - 0,0
12.09.2019 06:00:00 10,2 6,8 - - 0,0
12.09.2019 05:00:00 10,6 7,8 - - 0,0

tt = temperature
td = dewpoint
tt -20cm = temperature -20cm
tt -100cm = temperature -100cm
rr = precipitation

Next stations